ADDS METAR Data INFO
IDs: Format: Raw Decoded Include TAF

Data at: 2332 UTC 19 Oct 2017

KBRO 192253Z 08008KT 10SM CLR 29/21 A2998 RMK AO2 SLP150 T02890211
KBRO 192153Z 04006KT 10SM CLR 31/19 A2998 RMK AO2 SLP150 T03060189
KBRO 192053Z VRB06KT 10SM SCT070 31/21 A2998 RMK AO2 SLP151 T03060211 56021
KBRO 191953Z 04009KT 10SM OVC070 29/22 A2999 RMK AO2 SLP154 T02940217
KBRO 191853Z 07007KT 10SM BKN050 OVC060 29/22 A3002 RMK AO2 SLP165 T02890217
KBRO 191753Z 00000KT 10SM FEW039 FEW048 BKN060 29/21 A3004 RMK AO2 SLP172 T02940206 10306 20194 58008
KBRO 191653Z 04005KT 10SM FEW049 FEW060 29/21 A3006 RMK AO2 SLP179 T02890211
KBRO 191553Z 00000KT 10SM CLR 28/22 A3007 RMK AO2 SLP181 T02830217
KBRO 191453Z 35003KT 10SM CLR 26/22 A3007 RMK AO2 SLP180 T02610217 53012
KBRO 191353Z 34003KT 10SM CLR 23/21 A3005 RMK AO2 SLP174 T02330206
KBRO 191253Z 32003KT 10SM CLR 19/19 A3004 RMK AO2 SLP169 T01940189
KBRO 191153Z 00000KT 10SM CLR 19/19 A3003 RMK AO2 SLP168 T01940189 10211 20189 55001
KBRO 191053Z AUTO 00000KT 10SM CLR 20/19 A3003 RMK AO2 SLP167 T02000189
KBRO 190953Z AUTO 30003KT 10SM CLR 21/19 A3003 RMK AO2 SLP166 T02060189
KBRO 190925Z AUTO 00000KT 10SM FEW028 21/19 A3003 RMK AO2 T02060194
KBRO 190915Z AUTO 00000KT 10SM BKN029 21/19 A3003 RMK AO2 T02060194
KBRO 190853Z AUTO 00000KT 10SM BKN030 21/19 A3004 RMK AO2 SLP170 T02060189 58010
KBRO 190753Z AUTO 00000KT 10SM CLR 20/19 A3005 RMK AO2 SLP175 T02000189
KBRO 190653Z AUTO 00000KT 10SM FEW030 21/19 A3006 RMK AO2 SLP177 T02060189
KBRO 190553Z AUTO 00000KT 10SM CLR 21/19 A3007 RMK AO2 SLP180 T02060189 10250 20200 402940150 58005
KBRO 190453Z AUTO 00000KT 10SM CLR 21/19 A3008 RMK AO2 SLP184 T02060189
KBRO 190353Z AUTO 00000KT 10SM CLR 21/19 A3009 RMK AO2 SLP186 T02110189
KBRO 190253Z AUTO 00000KT 10SM CLR 21/19 A3008 RMK AO2 SLP185 T02110189 51006
KBRO 190153Z AUTO 08004KT 10SM CLR 23/19 A3008 RMK AO2 SLP184 T02280189
KBRO 190053Z 07005KT 10SM CLR 23/19 A3007 RMK AO2 SLP181 T02330189
KBRO 182353Z 07007KT 10SM CLR 25/19 A3006 RMK AO2 SLP178 T02500189 10294 20250 53001
KBRO 182253Z 07011KT 10SM CLR 27/18 A3005 RMK AO2 SLP174 T02670183
KBRO 182153Z 08009KT 10SM CLR 28/18 A3005 RMK AO2 SLP175 T02780178
KBRO 182053Z 06008KT 10SM CLR 29/18 A3006 RMK AO2 SLP177 T02890178 56021
KBRO 181953Z 10SM CLR 29/18 A3007 RMK AO2 SLP180 T02890178
KBRO 181853Z 07007KT 040V100 10SM CLR 29/18 A3009 RMK AO2 SLP188 T02890178
KBRO 181753Z 33005KT 10SM CLR 28/17 A3012 RMK AO2 SLP198 T02830167 10289 20150 58010
KBRO 181653Z 02003KT 10SM CLR 28/17 A3014 RMK AO2 SLP206 T02830172
KBRO 181553Z 34005KT 10SM CLR 27/18 A3016 RMK AO2 SLP210 T02670183
KBRO 181453Z VRB03KT 10SM CLR 24/19 A3015 RMK AO2 SLP208 T02390194 53010
KBRO 181353Z 34004KT 10SM CLR 20/18 A3014 RMK AO2 SLP204 T02000183
KBRO 181253Z 34003KT 10SM CLR 17/16 A3012 RMK AO2 SLP198 T01670161
KBRO 181153Z 32004KT 10SM CLR 16/16 A3012 RMK AO2 SLP197 T01610156 10183 20156 53002